Time;durP1;ratioP1;P1;durP2;ratioP2;P2;SDS_P1;SDS_P2;PMS_P1;PMS_P2;Temp;Humidity;BMP_temperature;BMP_pressure;BME280_temperature;BME280_humidity;BME280_pressure;Samples;Min_cycle;Max_cycle;Signal;HPM_P1;HPM_P2
2023/12/09 00:01:41;;;;;;;28.73;14.70;;;-10.90;93.30;;;;;;4940548;29;20055;-81
2023/12/09 00:04:07;;;;;;;27.02;13.00;;;-10.90;93.20;;;;;;4937794;29;20110;-80
2023/12/09 00:06:32;;;;;;;32.38;15.70;;;-10.90;93.30;;;;;;4919209;29;20122;-83
2023/12/09 00:08:58;;;;;;;29.92;15.20;;;-10.90;93.40;;;;;;4937306;29;20083;-83
2023/12/09 00:11:24;;;;;;;30.40;14.57;;;-10.90;93.50;;;;;;4930537;29;20036;-80
2023/12/09 00:13:51;;;;;;;30.45;15.70;;;-10.90;93.30;;;;;;4932529;29;20034;-85
2023/12/09 00:16:18;;;;;;;;;;;-10.90;93.30;;;;;;4938537;29;20121;-82
2023/12/09 00:18:45;;;;;;;20.95;10.10;;;-10.90;93.20;;;;;;4930660;29;19907;-86
2023/12/09 00:21:11;;;;;;;28.98;13.55;;;-11.00;93.00;;;;;;4938131;29;20076;-83
2023/12/09 00:23:36;;;;;;;31.85;16.38;;;-11.00;93.10;;;;;;4937328;29;20031;-84
2023/12/09 00:26:03;;;;;;;33.33;16.92;;;-11.00;93.10;;;;;;4936955;29;20075;-83
2023/12/09 00:28:29;;;;;;;24.55;13.02;;;-10.90;93.10;;;;;;4925762;29;20381;-84
2023/12/09 00:30:55;;;;;;;30.05;15.98;;;-10.90;93.00;;;;;;4937552;29;20036;-84
2023/12/09 00:33:21;;;;;;;30.15;15.93;;;-10.90;93.10;;;;;;4937643;29;20020;-82
2023/12/09 00:35:46;;;;;;;38.45;16.95;;;-10.90;93.30;;;;;;4937637;29;20164;-81
2023/12/09 00:38:12;;;;;;;33.13;14.95;;;-10.90;93.20;;;;;;4937974;29;20028;-83
2023/12/09 00:40:38;;;;;;;29.48;13.45;;;-10.90;93.10;;;;;;4920276;29;20032;-84
2023/12/09 00:43:04;;;;;;;31.08;15.88;;;-10.90;93.10;;;;;;4934547;29;20034;-83
2023/12/09 00:45:30;;;;;;;27.70;15.10;;;-10.90;93.10;;;;;;4939062;29;20031;-80
2023/12/09 00:47:55;;;;;;;31.25;17.38;;;-10.80;93.10;;;;;;4939272;29;20133;-81
2023/12/09 00:50:21;;;;;;;32.78;16.83;;;-10.80;93.00;;;;;;4938864;29;20015;-82
2023/12/09 00:52:47;;;;;;;24.40;11.98;;;-10.80;93.00;;;;;;4924641;29;20055;-82
2023/12/09 00:55:13;;;;;;;28.20;15.40;;;-10.80;93.20;;;;;;4933359;29;20028;-81
2023/12/09 00:57:39;;;;;;;29.00;15.50;;;-10.70;93.40;;;;;;4937675;29;20031;-82
2023/12/09 01:00:05;;;;;;;32.97;16.13;;;-10.70;93.20;;;;;;4937343;29;20031;-83
2023/12/09 01:02:31;;;;;;;26.27;14.23;;;-10.70;93.10;;;;;;4919378;29;20438;-81
2023/12/09 01:04:57;;;;;;;32.95;16.90;;;-10.80;93.00;;;;;;4918557;29;20031;-80
2023/12/09 01:07:23;;;;;;;31.75;15.30;;;-10.80;93.10;;;;;;4921703;29;20032;-82
2023/12/09 01:09:49;;;;;;;27.75;15.13;;;-10.80;93.10;;;;;;4925913;29;20024;-81
2023/12/09 01:12:15;;;;;;;36.67;19.15;;;-10.80;93.00;;;;;;4937091;29;20489;-81
2023/12/09 01:14:41;;;;;;;33.90;16.17;;;-10.90;92.60;;;;;;4937198;29;20032;-83
2023/12/09 01:17:07;;;;;;;25.15;15.30;;;-11.00;92.50;;;;;;4935393;29;20489;-82
2023/12/09 01:19:33;;;;;;;37.72;18.13;;;-11.00;92.80;;;;;;4935966;29;20020;-81
2023/12/09 01:21:59;;;;;;;34.28;18.40;;;-11.00;92.70;;;;;;4918887;29;20024;-82
2023/12/09 01:24:25;;;;;;;34.17;16.42;;;-11.20;92.30;;;;;;4918451;29;20103;-82
2023/12/09 01:26:51;;;;;;;27.92;12.60;;;-11.30;92.30;;;;;;4935604;29;20074;-82
2023/12/09 01:29:17;;;;;;;29.73;13.75;;;-11.30;92.60;;;;;;4935702;29;20044;-81
2023/12/09 01:31:42;;;;;;;31.02;16.83;;;-11.30;92.90;;;;;;4935712;29;20027;-82
2023/12/09 01:34:08;;;;;;;34.47;15.73;;;-11.30;93.00;;;;;;4921151;29;20032;-82
2023/12/09 01:36:34;;;;;;;27.27;13.90;;;-11.30;93.00;;;;;;4935882;29;20437;-82
2023/12/09 01:39:00;;;;;;;37.67;21.38;;;-11.30;93.10;;;;;;4935424;29;20401;-82
2023/12/09 01:41:28;;;;;;;31.15;14.00;;;-11.30;93.00;;;;;;4918411;29;20028;-80
2023/12/09 01:43:54;;;;;;;28.73;14.07;;;-11.30;93.10;;;;;;4937379;29;20030;-82
2023/12/09 01:46:21;;;;;;;11.53;7.00;;;-11.30;93.30;;;;;;4940151;29;20038;-80
2023/12/09 01:48:47;;;;;;;26.92;15.98;;;-11.30;93.40;;;;;;4935389;29;20055;-80
2023/12/09 01:51:15;;;;;;;29.35;16.55;;;-11.20;93.50;;;;;;4934417;29;20061;-79
2023/12/09 01:53:42;;;;;;;26.48;13.88;;;-11.30;93.40;;;;;;4935246;29;20040;-81
2023/12/09 01:56:10;;;;;;;30.27;15.52;;;-11.40;93.00;;;;;;4935390;29;20095;-81
2023/12/09 01:58:37;;;;;;;34.53;16.65;;;-11.40;93.10;;;;;;4935636;29;20031;-81
2023/12/09 02:01:04;;;;;;;27.33;12.73;;;-11.40;93.10;;;;;;4936786;29;20019;-81
2023/12/09 02:03:34;;;;;;;26.40;14.63;;;-11.40;93.20;;;;;;4917916;29;20050;-81
2023/12/09 02:06:00;;;;;;;30.55;13.98;;;-11.30;93.40;;;;;;4935022;29;20035;-81
2023/12/09 02:08:26;;;;;;;31.40;15.15;;;-11.30;93.40;;;;;;4934012;29;20107;-80
2023/12/09 02:11:04;;;;;;;31.03;13.77;;;-11.20;93.30;;;;;;4935138;29;20066;-82
2023/12/09 02:13:49;;;;;;;28.65;12.98;;;-11.20;93.10;;;;;;4934770;29;20027;-81
2023/12/09 02:16:22;;;;;;;29.60;14.75;;;-11.20;93.10;;;;;;4935094;29;20038;-80
2023/12/09 02:18:48;;;;;;;37.60;17.73;;;-11.10;93.00;;;;;;4934775;29;20132;-81
2023/12/09 02:21:14;;;;;;;30.17;15.50;;;-11.10;93.00;;;;;;4933680;29;20043;-81
2023/12/09 02:23:41;;;;;;;26.00;13.63;;;-11.10;93.10;;;;;;4935045;29;20048;-81
2023/12/09 02:26:16;;;;;;;28.10;14.15;;;-11.10;93.00;;;;;;4916808;29;20035;-81
2023/12/09 02:28:51;;;;;;;26.77;14.07;;;-11.10;92.80;;;;;;4935360;29;20063;-81
2023/12/09 02:31:23;;;;;;;17.70;10.68;;;-11.20;92.70;;;;;;4919453;29;20499;-81
2023/12/09 02:33:50;;;;;;;21.27;11.27;;;-11.20;92.70;;;;;;4935134;29;20103;-81
2023/12/09 02:36:21;;;;;;;21.33;11.82;;;-11.20;92.80;;;;;;4943820;29;20072;-81
2023/12/09 02:38:49;;;;;;;25.30;12.77;;;-11.20;92.80;;;;;;4940440;29;20131;-81
2023/12/09 02:41:16;;;;;;;27.50;14.18;;;-11.30;92.80;;;;;;4933520;29;20020;-82
2023/12/09 02:43:45;;;;;;;31.80;15.15;;;-11.30;92.90;;;;;;4935331;29;20087;-82
2023/12/09 02:46:15;;;;;;;31.25;13.57;;;-11.30;92.90;;;;;;4915863;29;20042;-83
2023/12/09 02:48:41;;;;;;;30.05;16.05;;;-11.40;92.80;;;;;;4907971;29;20520;-82
2023/12/09 02:51:07;;;;;;;22.90;13.65;;;-11.40;92.50;;;;;;4917659;29;20028;-81
2023/12/09 02:53:34;;;;;;;25.67;14.80;;;-11.50;92.60;;;;;;4934855;29;20024;-81
2023/12/09 02:56:00;;;;;;;29.77;15.55;;;-11.50;92.70;;;;;;4917742;29;20435;-82
2023/12/09 02:58:26;;;;;;;28.60;16.13;;;-11.40;92.80;;;;;;4933277;29;20059;-80
2023/12/09 03:00:52;;;;;;;27.20;14.57;;;-11.50;92.80;;;;;;4917816;29;20067;-80
2023/12/09 03:03:17;;;;;;;28.13;14.35;;;-11.50;92.80;;;;;;4934698;29;20024;-81
2023/12/09 03:05:43;;;;;;;28.00;16.10;;;-11.40;92.90;;;;;;4918892;29;20027;-81
2023/12/09 03:08:09;;;;;;;24.85;13.20;;;-11.40;93.00;;;;;;4936957;29;20434;-80
2023/12/09 03:10:35;;;;;;;30.88;15.43;;;-11.40;93.20;;;;;;4931491;29;20525;-82
2023/12/09 03:13:01;;;;;;;32.25;16.02;;;-11.30;93.20;;;;;;4939171;29;20054;-81
2023/12/09 03:15:26;;;;;;;35.40;14.13;;;-11.30;93.10;;;;;;4935278;29;20493;-80
2023/12/09 03:17:52;;;;;;;29.83;17.00;;;-11.30;93.00;;;;;;4917784;29;20028;-80
2023/12/09 03:20:20;;;;;;;31.65;16.13;;;-11.20;93.10;;;;;;4934854;29;20087;-81
2023/12/09 03:22:46;;;;;;;18.48;12.02;;;-11.20;93.00;;;;;;4915476;29;20027;-80
2023/12/09 03:25:12;;;;;;;31.13;15.02;;;-11.20;92.90;;;;;;4917952;29;20027;-81
2023/12/09 03:27:38;;;;;;;23.95;13.52;;;-11.20;93.00;;;;;;4917448;29;20078;-80
2023/12/09 03:30:04;;;;;;;31.33;14.25;;;-11.10;93.10;;;;;;4935803;29;20493;-82
2023/12/09 03:32:30;;;;;;;26.15;14.57;;;-11.10;93.10;;;;;;4932540;29;20032;-82
2023/12/09 03:34:56;;;;;;;29.10;14.80;;;-11.10;93.00;;;;;;4931511;29;20401;-80
2023/12/09 03:37:22;;;;;;;33.45;14.80;;;-11.00;93.10;;;;;;4920867;29;20115;-81
2023/12/09 03:39:47;;;;;;;24.83;14.10;;;-11.00;93.10;;;;;;4922228;29;20028;-81
2023/12/09 03:42:13;;;;;;;22.65;13.23;;;-10.90;92.90;;;;;;4939925;29;20035;-80
2023/12/09 03:44:39;;;;;;;26.33;12.85;;;-10.90;92.80;;;;;;4940404;29;20024;-82
2023/12/09 03:47:05;;;;;;;28.45;14.65;;;-10.90;92.80;;;;;;4937103;29;20513;-80
2023/12/09 03:49:32;;;;;;;24.58;13.10;;;-10.90;92.80;;;;;;4925015;29;20040;-81
2023/12/09 03:51:59;;;;;;;27.70;12.80;;;-11.00;92.70;;;;;;4918993;29;20104;-80
2023/12/09 03:54:25;;;;;;;21.77;12.85;;;-11.00;93.00;;;;;;4919369;29;20025;-81
2023/12/09 03:56:51;;;;;;;25.45;12.00;;;-11.00;93.00;;;;;;4932440;29;20032;-81
2023/12/09 03:59:16;;;;;;;29.40;12.93;;;-10.90;93.10;;;;;;4919312;29;20024;-80
2023/12/09 04:01:48;;;;;;;30.90;13.00;;;-11.00;93.10;;;;;;4900098;29;20028;-81
2023/12/09 04:04:14;;;;;;;28.98;11.77;;;-11.00;93.00;;;;;;4920015;29;20103;-81
2023/12/09 04:06:41;;;;;;;27.10;12.23;;;-11.00;92.80;;;;;;4924045;29;20035;-83
2023/12/09 04:09:07;;;;;;;;;;;-11.00;92.50;;;;;;4902876;29;20545;-81
2023/12/09 04:11:33;;;;;;;23.87;11.23;;;-11.10;92.40;;;;;;4914726;29;19990;-82
2023/12/09 04:13:59;;;;;;;25.80;15.17;;;-11.10;92.30;;;;;;4918648;29;20074;-81
2023/12/09 04:16:25;;;;;;;28.80;14.27;;;-11.10;92.50;;;;;;4919419;29;20588;-81
2023/12/09 04:18:50;;;;;;;27.65;13.73;;;-11.10;92.60;;;;;;4903303;29;20048;-82
2023/12/09 04:21:17;;;;;;;25.23;12.40;;;-11.10;92.70;;;;;;4894123;29;20020;-82
2023/12/09 04:23:44;;;;;;;;;;;-11.10;92.40;;;;;;4918474;29;20438;-82
2023/12/09 04:26:10;;;;;;;25.35;12.75;;;-11.10;92.50;;;;;;4917701;29;19915;-81
2023/12/09 04:28:35;;;;;;;27.00;12.30;;;-11.10;92.30;;;;;;4917793;29;20151;-82
2023/12/09 04:31:01;;;;;;;20.08;11.30;;;-11.10;92.30;;;;;;4917749;29;20031;-80
2023/12/09 04:33:29;;;;;;;30.00;15.63;;;-11.10;92.40;;;;;;4900755;29;20028;-80
2023/12/09 04:35:55;;;;;;;20.58;12.85;;;-11.10;92.10;;;;;;4910751;29;20043;-81
2023/12/09 04:38:21;;;;;;;23.52;12.40;;;-11.20;91.90;;;;;;4917834;29;20389;-81
2023/12/09 04:40:47;;;;;;;20.73;11.60;;;-11.30;92.10;;;;;;4917589;29;20035;-79
2023/12/09 04:43:13;;;;;;;24.25;12.73;;;-11.30;92.40;;;;;;4917587;29;20028;-82
2023/12/09 04:45:39;;;;;;;25.42;13.65;;;-11.30;92.50;;;;;;4917918;29;20035;-81
2023/12/09 04:48:05;;;;;;;20.83;10.57;;;-11.30;92.50;;;;;;4922916;29;20067;-82
2023/12/09 04:50:31;;;;;;;28.15;15.32;;;-11.20;92.60;;;;;;4922524;29;20090;-80
2023/12/09 04:52:57;;;;;;;31.45;13.27;;;-11.20;92.70;;;;;;4955262;29;20441;-80
2023/12/09 04:55:24;;;;;;;20.42;11.00;;;-11.10;92.70;;;;;;4955494;29;20023;-80
2023/12/09 04:57:49;;;;;;;26.15;12.85;;;-11.10;92.90;;;;;;4952799;29;20042;-79
2023/12/09 05:00:15;;;;;;;24.63;15.02;;;-11.00;93.00;;;;;;4955033;29;20039;-80
2023/12/09 05:02:41;;;;;;;22.52;14.35;;;-11.00;92.70;;;;;;4943389;29;20028;-80
2023/12/09 05:05:08;;;;;;;23.85;11.60;;;-11.00;92.50;;;;;;4936474;29;20048;-80
2023/12/09 05:07:34;;;;;;;28.75;12.73;;;-11.00;92.20;;;;;;4945849;29;20028;-81
2023/12/09 05:10:00;;;;;;;28.60;16.08;;;-11.00;92.20;;;;;;4934525;29;20034;-80
2023/12/09 05:12:26;;;;;;;18.27;13.43;;;-11.00;92.30;;;;;;4955737;29;20031;-79
2023/12/09 05:14:52;;;;;;;18.98;11.05;;;-11.00;92.30;;;;;;4956118;29;20031;-80
2023/12/09 05:17:18;;;;;;;22.80;13.18;;;-11.10;91.90;;;;;;4957342;29;20031;-80
2023/12/09 05:19:44;;;;;;;20.88;11.65;;;-11.20;92.00;;;;;;4938073;29;20066;-80
2023/12/09 05:22:11;;;;;;;23.88;13.48;;;-11.20;92.20;;;;;;4954891;29;20417;-81
2023/12/09 05:24:37;;;;;;;19.58;11.45;;;-11.10;92.30;;;;;;4955032;29;20062;-80
2023/12/09 05:27:03;;;;;;;23.95;11.75;;;-11.20;92.30;;;;;;4954722;29;20667;-82
2023/12/09 05:29:29;;;;;;;21.55;10.82;;;-11.20;92.30;;;;;;4953908;29;20027;-80
2023/12/09 05:31:55;;;;;;;22.60;12.80;;;-11.20;92.30;;;;;;4937721;29;20138;-82
2023/12/09 05:34:21;;;;;;;20.85;10.52;;;-11.20;92.30;;;;;;4956737;28;20378;-81
2023/12/09 05:36:47;;;;;;;21.20;11.88;;;-11.10;92.50;;;;;;4964735;29;20032;-80
2023/12/09 05:39:13;;;;;;;19.90;9.63;;;-11.20;92.50;;;;;;4958468;29;20026;-82
2023/12/09 05:41:42;;;;;;;26.95;14.00;;;-11.30;92.30;;;;;;4954775;29;20032;-82
2023/12/09 05:44:08;;;;;;;20.35;12.95;;;-11.30;92.30;;;;;;4952826;29;20016;-82
2023/12/09 05:46:36;;;;;;;28.67;11.02;;;-11.40;92.30;;;;;;4955544;29;20039;-81
2023/12/09 05:49:02;;;;;;;21.48;10.98;;;-11.40;92.60;;;;;;4954833;29;20374;-81
2023/12/09 05:51:28;;;;;;;28.23;13.07;;;-11.40;92.70;;;;;;4947120;29;20026;-81
2023/12/09 05:53:54;;;;;;;21.60;12.52;;;-11.30;92.80;;;;;;4954834;28;20019;-81
2023/12/09 05:56:19;;;;;;;21.67;12.63;;;-11.30;92.70;;;;;;4935782;29;20118;-80
2023/12/09 05:58:45;;;;;;;25.15;14.25;;;-11.30;92.60;;;;;;4952319;29;20031;-80
2023/12/09 06:01:11;;;;;;;19.80;10.68;;;-11.30;92.50;;;;;;4933751;29;20494;-82
2023/12/09 06:03:37;;;;;;;26.63;12.18;;;-11.30;92.50;;;;;;4954686;29;20473;-83
2023/12/09 06:06:04;;;;;;;21.45;12.57;;;-11.30;92.50;;;;;;4954216;29;20473;-82
2023/12/09 06:08:30;;;;;;;23.52;12.23;;;-11.30;92.60;;;;;;4954176;29;20027;-82
2023/12/09 06:10:56;;;;;;;25.83;12.88;;;-11.20;92.70;;;;;;4955218;29;20092;-82
2023/12/09 06:13:21;;;;;;;30.52;13.95;;;-11.10;92.90;;;;;;4954604;29;20027;-84
2023/12/09 06:15:47;;;;;;;21.25;12.40;;;-11.10;92.80;;;;;;4936682;29;20055;-82
2023/12/09 06:18:13;;;;;;;23.58;11.65;;;-11.00;92.80;;;;;;4954608;29;20074;-80
2023/12/09 06:20:39;;;;;;;24.67;12.75;;;-11.00;92.60;;;;;;4954320;29;20531;-81
2023/12/09 06:23:05;;;;;;;28.63;13.10;;;-11.20;92.20;;;;;;4954112;29;20065;-82
2023/12/09 06:25:31;;;;;;;23.85;12.32;;;-11.30;92.50;;;;;;4954138;29;20381;-81
2023/12/09 06:27:57;;;;;;;23.48;11.35;;;-11.30;92.50;;;;;;4936739;29;20035;-82
2023/12/09 06:30:23;;;;;;;23.40;11.32;;;-11.30;92.60;;;;;;4954183;29;20059;-82
2023/12/09 06:32:48;;;;;;;27.50;15.77;;;-11.30;92.60;;;;;;4952883;29;20035;-82
2023/12/09 06:35:14;;;;;;;24.52;12.30;;;-11.30;92.70;;;;;;4936531;29;20117;-81
2023/12/09 06:37:40;;;;;;;21.35;13.48;;;-11.30;92.80;;;;;;4953966;29;20477;-81
2023/12/09 06:40:07;;;;;;;20.27;11.75;;;-11.40;92.40;;;;;;4953953;29;20070;-83
2023/12/09 06:42:33;;;;;;;15.98;11.63;;;-11.50;92.80;;;;;;4953794;29;20028;-81
2023/12/09 06:44:59;;;;;;;21.17;12.13;;;-11.60;92.40;;;;;;4953757;29;20115;-81
2023/12/09 06:47:24;;;;;;;17.92;9.88;;;-11.70;92.40;;;;;;4935561;29;20138;-81
2023/12/09 06:49:50;;;;;;;23.83;13.02;;;-11.70;92.70;;;;;;4953731;29;20039;-82
2023/12/09 06:52:16;;;;;;;22.45;10.75;;;-11.70;92.90;;;;;;4953812;29;20060;-81
2023/12/09 06:54:42;;;;;;;21.58;11.05;;;-11.70;92.80;;;;;;4955045;29;20087;-83
2023/12/09 06:57:09;;;;;;;25.80;11.55;;;-11.70;92.80;;;;;;4955499;29;20151;-81
2023/12/09 06:59:34;;;;;;;24.23;11.63;;;-11.70;93.00;;;;;;4954555;29;20397;-81
2023/12/09 07:02:00;;;;;;;14.80;8.35;;;-11.70;92.90;;;;;;4957481;29;20027;-80
2023/12/09 07:04:26;;;;;;;26.02;12.60;;;-11.70;93.00;;;;;;4940036;29;20512;-81
2023/12/09 07:06:52;;;;;;;37.38;20.13;;;-11.50;93.10;;;;;;4960854;28;20035;-83
2023/12/09 07:09:18;;;;;;;23.38;15.60;;;-11.50;92.80;;;;;;4957596;29;20027;-82
2023/12/09 07:11:44;;;;;;;25.80;13.82;;;-11.50;92.60;;;;;;4957300;29;20027;-82
2023/12/09 07:14:09;;;;;;;27.45;13.20;;;-11.50;92.70;;;;;;4957375;29;20385;-84
2023/12/09 07:16:38;;;;;;;21.02;10.35;;;-11.50;92.90;;;;;;4927648;29;20482;-82
2023/12/09 07:19:06;;;;;;;24.20;13.65;;;-11.50;93.00;;;;;;4957690;29;20027;-83
2023/12/09 07:21:32;;;;;;;25.33;14.05;;;-11.50;92.80;;;;;;4959602;29;20030;-82
2023/12/09 07:23:57;;;;;;;23.80;14.32;;;-11.50;92.90;;;;;;4958695;29;20389;-82
2023/12/09 07:26:23;;;;;;;21.38;12.48;;;-11.50;92.80;;;;;;4957509;29;20031;-83
2023/12/09 07:28:49;;;;;;;28.05;12.45;;;-11.50;93.00;;;;;;4940864;29;20046;-81
2023/12/09 07:31:15;;;;;;;27.00;12.32;;;-11.50;92.90;;;;;;4939837;29;20737;-82
2023/12/09 07:33:42;;;;;;;28.05;14.45;;;-11.50;92.80;;;;;;4957910;29;20114;-81
2023/12/09 07:36:08;;;;;;;22.93;12.17;;;-11.40;93.10;;;;;;4958553;29;20038;-80
2023/12/09 07:38:33;;;;;;;28.52;14.73;;;-11.40;93.20;;;;;;4962243;29;20031;-82
2023/12/09 07:40:59;;;;;;;26.65;13.30;;;-11.30;93.30;;;;;;4959919;29;20066;-81
2023/12/09 07:43:26;;;;;;;34.72;13.30;;;-11.30;93.30;;;;;;4948636;29;20020;-82
2023/12/09 07:45:52;;;;;;;20.90;11.27;;;-11.20;93.20;;;;;;4952495;29;20427;-83
2023/12/09 07:48:17;;;;;;;26.35;13.68;;;-11.20;93.30;;;;;;4939727;29;20130;-82
2023/12/09 07:50:43;;;;;;;24.17;11.35;;;-11.10;93.20;;;;;;4957152;29;20035;-83
2023/12/09 07:53:09;;;;;;;26.25;12.75;;;-11.10;93.10;;;;;;4956012;29;20031;-81
2023/12/09 07:55:35;;;;;;;23.33;14.35;;;-11.10;93.00;;;;;;4957857;29;20038;-83
2023/12/09 07:58:01;;;;;;;28.17;15.20;;;-11.20;92.40;;;;;;4957069;29;20102;-81
2023/12/09 08:00:27;;;;;;;22.30;13.00;;;-11.20;92.70;;;;;;4957558;29;20027;-83
2023/12/09 08:02:54;;;;;;;24.73;13.68;;;-11.20;92.60;;;;;;4958745;29;20028;-82
2023/12/09 08:05:23;;;;;;;22.17;13.48;;;-11.30;92.30;;;;;;4956901;29;20055;-83
2023/12/09 08:07:49;;;;;;;24.23;11.57;;;-11.40;92.40;;;;;;4954519;29;20349;-83
2023/12/09 08:10:15;;;;;;;25.42;13.02;;;-11.40;92.50;;;;;;4953632;29;20106;-82
2023/12/09 08:12:41;;;;;;;21.70;11.63;;;-11.40;92.80;;;;;;4953430;29;20107;-84
2023/12/09 08:15:08;;;;;;;25.80;12.45;;;-11.30;92.90;;;;;;4951225;29;20035;-83
2023/12/09 08:17:34;;;;;;;29.85;13.82;;;-11.30;92.80;;;;;;4950396;29;20023;-83
2023/12/09 08:20:00;;;;;;;28.13;13.43;;;-11.20;92.80;;;;;;4947661;29;20508;-84
2023/12/09 08:22:26;;;;;;;24.38;10.82;;;-11.10;92.70;;;;;;4956974;29;20484;-84
2023/12/09 08:24:52;;;;;;;21.02;11.52;;;-11.00;92.70;;;;;;4962732;28;20051;-83
2023/12/09 08:27:18;;;;;;;19.20;12.45;;;-10.90;92.70;;;;;;4951917;29;20075;-83
2023/12/09 08:29:44;;;;;;;22.95;12.15;;;-10.80;92.60;;;;;;4939713;29;20039;-84
2023/12/09 08:32:10;;;;;;;26.52;15.70;;;-10.90;92.00;;;;;;4956302;29;20038;-82
2023/12/09 08:34:36;;;;;;;18.27;13.18;;;-10.90;91.70;;;;;;4944582;29;20023;-83
2023/12/09 08:37:02;;;;;;;21.83;12.38;;;-11.00;91.50;;;;;;4958713;29;20042;-84
2023/12/09 08:39:28;;;;;;;23.17;12.98;;;-11.10;91.80;;;;;;4955872;29;20050;-82
2023/12/09 08:41:54;;;;;;;16.52;8.65;;;-11.10;92.20;;;;;;4956927;29;20071;-83
2023/12/09 08:44:19;;;;;;;20.02;10.07;;;-11.00;92.30;;;;;;4956586;28;20030;-83
2023/12/09 08:46:45;;;;;;;13.32;6.53;;;-11.00;92.50;;;;;;4962521;29;20026;-82
2023/12/09 08:49:12;;;;;;;20.20;12.43;;;-10.90;92.80;;;;;;4959743;28;20390;-83
2023/12/09 08:51:50;;;;;;;22.40;10.98;;;-10.90;93.00;;;;;;4956002;29;20019;-83
2023/12/09 08:54:16;;;;;;;27.50;14.30;;;-10.80;93.10;;;;;;4955843;29;20046;-83
2023/12/09 08:56:42;;;;;;;23.90;12.10;;;-10.80;93.10;;;;;;4955799;29;20031;-83
2023/12/09 08:59:09;;;;;;;27.40;11.85;;;-10.70;92.90;;;;;;4938297;29;20026;-82
2023/12/09 09:01:36;;;;;;;24.25;13.18;;;-10.70;92.20;;;;;;4949765;29;20106;-84
2023/12/09 09:04:02;;;;;;;25.38;14.50;;;-10.70;92.40;;;;;;4924271;29;20442;-83
2023/12/09 09:06:28;;;;;;;20.40;11.30;;;-10.60;92.00;;;;;;4951066;29;20039;-82
2023/12/09 09:08:54;;;;;;;24.13;11.70;;;-10.60;91.90;;;;;;4948066;29;20380;-82
2023/12/09 09:11:20;;;;;;;25.30;13.57;;;-10.60;91.80;;;;;;4950524;29;20110;-82
2023/12/09 09:13:47;;;;;;;22.13;10.80;;;-10.60;91.90;;;;;;4953721;29;20027;-83
2023/12/09 09:16:14;;;;;;;24.30;14.40;;;-10.50;92.20;;;;;;4951201;29;20470;-83
2023/12/09 09:18:40;;;;;;;19.70;10.90;;;-10.40;91.90;;;;;;4954901;29;20511;-83
2023/12/09 09:21:06;;;;;;;32.58;14.02;;;-10.30;91.70;;;;;;4950093;29;20030;-84
2023/12/09 09:23:32;;;;;;;28.50;16.20;;;-10.40;91.20;;;;;;4955060;29;20023;-82
2023/12/09 09:25:58;;;;;;;28.50;13.50;;;-10.50;90.80;;;;;;4955108;29;20023;-84
2023/12/09 09:28:23;;;;;;;22.80;13.40;;;-10.70;90.90;;;;;;4945140;29;20111;-84
2023/12/09 09:30:49;;;;;;;23.95;13.25;;;-10.70;91.30;;;;;;4943083;29;20099;-85
2023/12/09 09:33:15;;;;;;;22.08;12.13;;;-10.70;91.10;;;;;;4953759;29;20038;-83
2023/12/09 09:35:41;;;;;;;21.60;11.13;;;-10.70;91.20;;;;;;4954599;29;20034;-82
2023/12/09 09:38:07;;;;;;;23.55;12.18;;;-10.60;91.40;;;;;;4955195;29;20154;-84
2023/12/09 09:40:33;;;;;;;23.15;12.40;;;-10.60;91.80;;;;;;4942067;28;20103;-83
2023/12/09 09:43:07;;;;;;;24.42;12.95;;;-10.60;91.80;;;;;;4953109;29;20038;-81
2023/12/09 09:45:33;;;;;;;32.35;14.25;;;-10.60;91.70;;;;;;4939210;29;20026;-84
2023/12/09 09:48:12;;;;;;;29.52;12.85;;;-10.60;90.90;;;;;;4945844;29;20047;-83
2023/12/09 09:50:45;;;;;;;23.40;13.07;;;-10.80;91.30;;;;;;4955646;29;20015;-84
2023/12/09 09:53:20;;;;;;;21.00;13.13;;;-10.70;91.50;;;;;;4955151;29;20029;-84
2023/12/09 09:55:47;;;;;;;29.02;13.52;;;-10.80;91.50;;;;;;4939876;29;20029;-86
2023/12/09 09:58:16;;;;;;;18.42;8.10;;;-10.70;91.80;;;;;;4959617;29;20023;-86
2023/12/09 10:00:42;;;;;;;19.63;11.48;;;-10.60;91.90;;;;;;4958428;29;20027;-88
2023/12/09 10:03:08;;;;;;;23.27;12.07;;;-10.50;92.00;;;;;;4959063;29;20051;-84
2023/12/09 10:05:34;;;;;;;24.13;12.25;;;-10.40;92.10;;;;;;4952008;29;20038;-82
2023/12/09 10:08:00;;;;;;;27.63;13.57;;;-10.30;91.50;;;;;;4955894;29;20035;-82
2023/12/09 10:10:27;;;;;;;26.90;13.93;;;-10.40;91.50;;;;;;4933326;29;20048;-85
2023/12/09 10:12:53;;;;;;;28.83;14.73;;;-10.30;91.40;;;;;;4942784;29;20031;-83
2023/12/09 10:15:19;;;;;;;26.08;14.00;;;-10.30;90.90;;;;;;4944421;29;20396;-85
2023/12/09 10:17:45;;;;;;;17.38;8.98;;;-10.30;91.00;;;;;;4949717;29;20492;-88
2023/12/09 10:20:11;;;;;;;25.90;12.38;;;-10.20;91.40;;;;;;4954801;29;20110;-83
2023/12/09 10:22:38;;;;;;;22.63;11.77;;;-10.20;91.60;;;;;;4954387;29;20055;-82
2023/12/09 10:25:08;;;;;;;18.50;11.70;;;-10.10;91.50;;;;;;4955240;29;20023;-84
2023/12/09 10:27:34;;;;;;;18.83;10.13;;;-10.10;91.50;;;;;;4938570;29;20035;-83
2023/12/09 10:30:00;;;;;;;26.27;14.32;;;-10.10;91.10;;;;;;4931766;29;20032;-82
2023/12/09 10:32:26;;;;;;;18.27;11.05;;;-10.10;91.00;;;;;;4956810;29;20027;-83
2023/12/09 10:34:53;;;;;;;27.50;14.07;;;-10.20;90.90;;;;;;4960630;29;20027;-83
2023/12/09 10:37:19;;;;;;;27.05;12.98;;;-10.10;91.00;;;;;;4955568;29;20050;-84
2023/12/09 10:39:47;;;;;;;22.07;11.67;;;-10.10;91.00;;;;;;4941841;28;20065;-85
2023/12/09 10:42:13;;;;;;;24.77;11.82;;;-10.10;90.80;;;;;;4961060;29;20269;-84
2023/12/09 10:44:40;;;;;;;15.95;10.07;;;-10.30;90.60;;;;;;4952003;29;20019;-82
2023/12/09 10:47:06;;;;;;;;;;;-10.40;90.40;;;;;;4974390;29;20035;-85
2023/12/09 10:49:33;;;;;;;22.10;11.98;;;-10.50;90.50;;;;;;4948324;29;19919;-81
2023/12/09 10:51:59;;;;;;;19.42;9.57;;;-10.60;90.70;;;;;;4949278;29;20040;-83
2023/12/09 10:54:26;;;;;;;16.53;11.37;;;-10.60;90.60;;;;;;4934425;29;20426;-82
2023/12/09 10:56:52;;;;;;;19.65;11.27;;;-10.70;90.80;;;;;;4958408;29;20082;-83
2023/12/09 10:59:19;;;;;;;20.77;11.60;;;-10.70;91.10;;;;;;4958650;29;20500;-80
2023/12/09 11:01:45;;;;;;;28.40;9.57;;;-10.60;91.30;;;;;;4949235;29;20043;-81
2023/12/09 11:04:14;;;;;;;14.20;9.90;;;-10.70;90.90;;;;;;4959019;29;20393;-84
2023/12/09 11:06:46;;;;;;;17.50;9.40;;;-10.80;91.10;;;;;;4945379;29;20050;-81
2023/12/09 11:09:14;;;;;;;20.52;11.23;;;-10.80;91.10;;;;;;4942814;29;20128;-79
2023/12/09 11:11:43;;;;;;;17.40;9.15;;;-10.80;91.70;;;;;;4954133;29;20035;-81
2023/12/09 11:14:11;;;;;;;19.23;11.57;;;-10.70;91.60;;;;;;4946675;29;20533;-80
2023/12/09 11:16:42;;;;;;;23.83;13.15;;;-10.70;91.20;;;;;;4952465;29;20035;-81
2023/12/09 11:19:15;;;;;;;21.02;12.43;;;-10.70;91.50;;;;;;4957520;29;20046;-83
2023/12/09 11:21:46;;;;;;;23.38;12.48;;;-10.60;91.50;;;;;;4958022;29;20120;-82
2023/12/09 11:24:14;;;;;;;26.30;11.25;;;-10.60;91.20;;;;;;4946921;29;20028;-81
2023/12/09 11:26:45;;;;;;;22.52;12.52;;;-10.70;90.90;;;;;;4944520;29;20119;-86
2023/12/09 11:29:12;;;;;;;25.15;14.27;;;-10.80;90.90;;;;;;4939869;29;20027;-87
2023/12/09 11:31:41;;;;;;;19.73;11.63;;;-10.90;91.40;;;;;;4955614;29;20115;-83
2023/12/09 11:34:08;;;;;;;27.80;15.07;;;-10.90;91.40;;;;;;4955877;29;20023;-82
2023/12/09 11:36:36;;;;;;;15.90;9.00;;;-11.00;91.40;;;;;;4961770;29;20016;-80
2023/12/09 11:39:09;;;;;;;30.08;16.15;;;-11.00;91.50;;;;;;4934485;29;20015;-81
2023/12/09 11:41:36;;;;;;;29.98;12.93;;;-11.10;91.60;;;;;;4939039;29;20032;-81
2023/12/09 11:44:03;;;;;;;21.40;11.65;;;-11.20;91.60;;;;;;4938598;29;20035;-81
2023/12/09 11:46:34;;;;;;;22.83;14.80;;;-11.20;91.80;;;;;;4955486;29;20035;-82
2023/12/09 11:49:00;;;;;;;18.58;11.30;;;-11.10;92.10;;;;;;4954204;29;20043;-80
2023/12/09 11:51:28;;;;;;;19.00;12.07;;;-11.10;91.70;;;;;;4953873;28;20094;-81
2023/12/09 11:54:05;;;;;;;23.58;11.75;;;-11.20;91.80;;;;;;4956747;29;20426;-80
2023/12/09 11:56:31;;;;;;;;;;;-11.20;92.20;;;;;;4948090;29;20023;-80
2023/12/09 11:58:57;;;;;;;22.13;11.13;;;-11.10;92.30;;;;;;4941783;29;19911;-81
2023/12/09 12:01:24;;;;;;;23.67;10.02;;;-11.20;92.40;;;;;;4952259;29;20034;-80
2023/12/09 12:03:52;;;;;;;24.30;12.05;;;-11.20;92.10;;;;;;4956482;29;20011;-82
2023/12/09 12:06:19;;;;;;;17.10;8.65;;;-11.20;92.20;;;;;;4935893;29;20028;-79
2023/12/09 12:08:53;;;;;;;20.15;10.40;;;-11.20;92.30;;;;;;4933394;29;20031;-84
2023/12/09 12:11:22;;;;;;;22.98;9.88;;;-11.20;92.60;;;;;;4943797;29;20031;-83
2023/12/09 12:13:48;;;;;;;25.90;11.55;;;-11.20;92.40;;;;;;4956464;29;20476;-83
2023/12/09 12:16:15;;;;;;;19.20;10.77;;;-11.20;92.40;;;;;;4957238;29;20389;-83